createdAt,value
2022-10-18T00:02:12.296Z,19.63
2022-10-18T00:04:39.070Z,15.50
2022-10-18T00:07:06.044Z,15.37
2022-10-18T00:09:32.687Z,20.10
2022-10-18T00:11:59.832Z,18.03
2022-10-18T00:14:26.548Z,17.30
2022-10-18T00:16:53.139Z,18.13
2022-10-18T00:19:19.795Z,19.37
2022-10-18T00:21:46.430Z,20.03
2022-10-18T00:24:13.067Z,15.73
2022-10-18T00:26:39.706Z,17.27
2022-10-18T00:29:06.731Z,19.03
2022-10-18T00:31:35.984Z,17.03
2022-10-18T00:34:05.910Z,17.80
2022-10-18T00:36:34.420Z,20.53
2022-10-18T00:39:02.615Z,20.93
2022-10-18T00:41:31.871Z,21.63
2022-10-18T00:44:27.603Z,17.13
2022-10-18T00:47:00.261Z,29.00
2022-10-18T00:49:35.223Z,23.83
2022-10-18T00:52:13.497Z,18.77
2022-10-18T00:54:42.900Z,19.63
2022-10-18T00:57:10.468Z,22.90
2022-10-18T00:59:37.547Z,26.00
2022-10-18T01:02:05.525Z,20.57
2022-10-18T01:04:32.708Z,21.30
2022-10-18T01:07:50.421Z,20.50
2022-10-18T01:10:20.051Z,21.40
2022-10-18T01:13:11.061Z,21.57
2022-10-18T01:16:11.527Z,24.53
2022-10-18T01:19:00.646Z,21.20
2022-10-18T01:21:36.317Z,25.20
2022-10-18T01:24:34.313Z,26.77
2022-10-18T01:27:24.311Z,23.83
2022-10-18T01:30:18.682Z,35.33
2022-10-18T01:32:52.034Z,20.50
2022-10-18T01:35:24.664Z,27.90
2022-10-18T01:37:53.616Z,25.23
2022-10-18T01:40:23.217Z,23.77
2022-10-18T01:42:50.237Z,33.20
2022-10-18T01:45:18.987Z,24.80
2022-10-18T01:47:47.660Z,31.83
2022-10-18T01:50:14.426Z,27.27
2022-10-18T01:52:49.645Z,28.10
2022-10-18T01:55:17.346Z,33.73
2022-10-18T01:58:03.434Z,34.73
2022-10-18T02:00:41.147Z,28.43
2022-10-18T02:03:21.888Z,31.37
2022-10-18T02:06:00.489Z,39.03
2022-10-18T02:08:38.418Z,25.40
2022-10-18T02:11:08.592Z,26.93
2022-10-18T02:13:59.859Z,32.70
2022-10-18T02:16:35.614Z,28.60
2022-10-18T02:19:12.789Z,36.57
2022-10-18T02:21:43.358Z,31.53
2022-10-18T02:24:12.884Z,30.67
2022-10-18T02:26:40.080Z,29.90
2022-10-18T02:29:07.455Z,30.63
2022-10-18T02:32:09.346Z,30.30
2022-10-18T02:34:40.943Z,32.23
2022-10-18T02:37:10.505Z,34.10
2022-10-18T02:39:42.422Z,35.43
2022-10-18T02:42:10.789Z,44.67
2022-10-18T02:44:38.632Z,30.40
2022-10-18T02:47:07.145Z,32.67
2022-10-18T02:49:34.168Z,30.10
2022-10-18T02:52:01.016Z,35.00
2022-10-18T02:54:27.591Z,36.90
2022-10-18T02:56:54.333Z,47.47
2022-10-18T02:59:20.909Z,33.40
2022-10-18T03:01:47.618Z,42.97
2022-10-18T03:04:14.361Z,38.10
2022-10-18T03:06:41.141Z,42.77
2022-10-18T03:09:07.770Z,53.80
2022-10-18T03:11:34.603Z,31.87
2022-10-18T03:14:01.219Z,37.10
2022-10-18T03:16:27.927Z,41.07
2022-10-18T03:18:54.540Z,34.60
2022-10-18T03:21:21.166Z,41.10
2022-10-18T03:23:47.771Z,38.03
2022-10-18T03:26:14.419Z,34.20
2022-10-18T03:28:41.037Z,37.07
2022-10-18T03:31:07.729Z,45.83
2022-10-18T03:33:34.494Z,42.60
2022-10-18T03:36:01.199Z,44.10
2022-10-18T03:38:27.895Z,46.30
2022-10-18T03:40:54.566Z,42.10
2022-10-18T03:43:21.311Z,52.23
2022-10-18T03:45:48.023Z,47.83
2022-10-18T03:48:14.694Z,41.27
2022-10-18T03:50:42.183Z,46.83
2022-10-18T03:53:09.067Z,58.33
2022-10-18T03:55:37.323Z,43.57
2022-10-18T03:58:03.982Z,38.73
2022-10-18T04:00:30.620Z,42.47
2022-10-18T04:02:57.279Z,46.70
2022-10-18T04:05:24.279Z,36.67
2022-10-18T04:07:51.125Z,42.10
2022-10-18T04:10:18.647Z,51.33
2022-10-18T04:12:45.392Z,49.67
2022-10-18T04:15:12.347Z,36.63
2022-10-18T04:17:38.945Z,38.90
2022-10-18T04:20:06.032Z,44.80
2022-10-18T04:22:32.622Z,44.70
2022-10-18T04:24:59.244Z,38.23
2022-10-18T04:27:26.434Z,39.03
2022-10-18T04:29:53.074Z,37.60
2022-10-18T04:32:19.675Z,39.13
2022-10-18T04:34:46.290Z,39.97
2022-10-18T04:37:12.885Z,45.83
2022-10-18T04:39:39.497Z,39.90
2022-10-18T04:42:06.099Z,43.23
2022-10-18T04:44:32.726Z,43.17
2022-10-18T04:46:59.344Z,38.33
2022-10-18T04:49:25.930Z,40.00
2022-10-18T04:51:52.572Z,39.93
2022-10-18T04:54:19.194Z,42.60
2022-10-18T04:56:45.804Z,44.17
2022-10-18T04:59:12.386Z,42.23
2022-10-18T05:01:39.004Z,48.67
2022-10-18T05:04:05.673Z,57.70
2022-10-18T05:06:32.295Z,47.63
2022-10-18T05:08:58.867Z,39.53
2022-10-18T05:11:25.510Z,44.50
2022-10-18T05:13:52.303Z,41.27
2022-10-18T05:16:18.927Z,41.30
2022-10-18T05:18:45.635Z,51.23
2022-10-18T05:21:12.478Z,47.33
2022-10-18T05:23:39.642Z,51.07
2022-10-18T05:26:07.348Z,49.57
2022-10-18T05:28:39.512Z,45.20
2022-10-18T05:31:08.854Z,50.03
2022-10-18T05:33:35.563Z,40.30
2022-10-18T05:36:02.224Z,42.37
2022-10-18T05:38:30.963Z,47.60
2022-10-18T05:40:58.607Z,52.57
2022-10-18T05:43:28.932Z,54.13
2022-10-18T05:45:55.715Z,46.87
2022-10-18T05:48:22.725Z,50.07
2022-10-18T05:50:49.336Z,46.37
2022-10-18T05:53:35.605Z,39.87
2022-10-18T05:56:03.616Z,36.80
2022-10-18T05:58:30.222Z,49.37
2022-10-18T06:01:01.395Z,44.13
2022-10-18T06:03:30.278Z,41.93
2022-10-18T06:06:05.416Z,34.70
2022-10-18T06:08:32.314Z,40.97
2022-10-18T06:10:59.219Z,35.50
2022-10-18T06:13:26.155Z,40.93
2022-10-18T06:15:56.964Z,34.03
2022-10-18T06:18:23.772Z,33.93
2022-10-18T06:20:55.770Z,40.03
2022-10-18T06:23:22.433Z,44.57
2022-10-18T06:25:49.038Z,43.23
2022-10-18T06:28:15.644Z,51.00
2022-10-18T06:30:42.239Z,45.70
2022-10-18T06:33:08.871Z,59.13
2022-10-18T06:35:35.446Z,43.67
2022-10-18T06:38:02.036Z,45.57
2022-10-18T06:40:30.838Z,39.57
2022-10-18T06:43:00.649Z,38.80
2022-10-18T06:45:37.206Z,41.90
2022-10-18T06:48:03.955Z,44.33
2022-10-18T06:50:30.641Z,48.17
2022-10-18T06:52:57.264Z,43.30
2022-10-18T06:55:23.862Z,50.37
2022-10-18T06:57:50.476Z,44.37
2022-10-18T07:00:17.190Z,44.50
2022-10-18T07:02:43.790Z,43.77
2022-10-18T07:05:11.457Z,45.13
2022-10-18T07:07:38.222Z,38.83
2022-10-18T07:10:05.588Z,38.20
2022-10-18T07:12:32.707Z,32.30
2022-10-18T07:14:59.430Z,48.90
2022-10-18T07:17:26.880Z,43.23
2022-10-18T07:19:53.695Z,36.43
2022-10-18T07:22:20.301Z,38.33
2022-10-18T07:24:46.917Z,35.67
2022-10-18T07:27:13.525Z,37.20
2022-10-18T07:29:40.890Z,35.60
2022-10-18T07:32:07.554Z,34.00
2022-10-18T07:34:34.283Z,39.00
2022-10-18T07:37:01.917Z,44.80
2022-10-18T07:39:28.500Z,38.40
2022-10-18T07:41:55.096Z,43.40
2022-10-18T07:44:21.807Z,43.67
2022-10-18T07:46:48.419Z,50.83
2022-10-18T07:49:15.056Z,43.97
2022-10-18T07:51:41.679Z,50.87
2022-10-18T07:54:09.210Z,37.27
2022-10-18T07:56:35.860Z,39.70
2022-10-18T07:59:02.574Z,40.10
2022-10-18T08:01:29.485Z,37.77
2022-10-18T08:03:56.459Z,35.00
2022-10-18T08:06:23.564Z,40.63
2022-10-18T08:08:50.628Z,33.73
2022-10-18T08:11:20.394Z,33.10
2022-10-18T08:13:47.471Z,41.07
2022-10-18T08:16:28.679Z,26.00
2022-10-18T08:18:57.919Z,32.27
2022-10-18T08:21:24.560Z,30.30
2022-10-18T08:23:51.441Z,29.10
2022-10-18T08:26:20.446Z,27.33
2022-10-18T08:28:58.421Z,35.37
2022-10-18T08:31:35.202Z,33.63
2022-10-18T08:34:01.784Z,28.67
2022-10-18T08:36:28.405Z,34.30
2022-10-18T08:38:55.017Z,25.47
2022-10-18T08:41:36.774Z,32.10
2022-10-18T08:44:22.710Z,32.03
2022-10-18T08:47:06.616Z,35.13
2022-10-18T08:49:47.277Z,48.33
2022-10-18T08:52:34.716Z,30.93
2022-10-18T08:55:24.298Z,29.97
2022-10-18T08:57:51.546Z,35.10
2022-10-18T09:00:29.627Z,28.07
2022-10-18T09:03:03.687Z,26.93
2022-10-18T09:06:24.035Z,27.80
2022-10-18T09:09:07.862Z,24.27
2022-10-18T09:11:51.066Z,31.17
2022-10-18T09:15:05.949Z,24.53
2022-10-18T09:17:40.564Z,27.43
2022-10-18T09:20:24.227Z,71.90
2022-10-18T09:23:18.456Z,35.73
2022-10-18T09:25:54.479Z,32.90
2022-10-18T09:28:35.674Z,27.57
2022-10-18T09:31:15.531Z,22.33
2022-10-18T09:33:55.731Z,28.63
2022-10-18T09:36:25.889Z,27.67
2022-10-18T09:39:00.445Z,24.13
2022-10-18T09:41:50.976Z,22.60
2022-10-18T09:44:25.635Z,23.00
2022-10-18T09:47:03.900Z,22.50
2022-10-18T09:49:37.060Z,18.93
2022-10-18T09:52:08.898Z,22.87
2022-10-18T09:54:45.846Z,21.07
2022-10-18T09:57:17.695Z,15.83
2022-10-18T09:59:47.463Z,25.27
2022-10-18T10:02:22.872Z,18.50
2022-10-18T10:04:54.314Z,19.73
2022-10-18T10:07:28.635Z,40.90
2022-10-18T10:10:12.318Z,17.13
2022-10-18T10:12:40.735Z,21.93
2022-10-18T10:15:26.229Z,32.53
2022-10-18T10:18:03.755Z,17.23
2022-10-18T10:20:44.170Z,22.53
2022-10-18T10:23:29.419Z,26.03
2022-10-18T10:26:20.508Z,26.77
2022-10-18T10:28:48.861Z,23.10
2022-10-18T10:31:25.660Z,24.63
2022-10-18T10:34:17.965Z,21.07
2022-10-18T10:36:53.475Z,18.57
2022-10-18T10:39:22.317Z,26.43
2022-10-18T10:41:57.924Z,19.97
2022-10-18T10:44:28.388Z,19.50
2022-10-18T10:46:55.402Z,21.00
2022-10-18T10:49:39.809Z,18.40
2022-10-18T10:52:26.972Z,23.37
2022-10-18T10:55:05.759Z,17.07
2022-10-18T10:57:45.946Z,26.73
2022-10-18T11:00:43.539Z,23.97
2022-10-18T11:03:28.514Z,37.87
2022-10-18T11:05:57.843Z,15.73
2022-10-18T11:08:28.157Z,20.93
2022-10-18T11:11:26.778Z,15.57
2022-10-18T11:14:25.139Z,22.70
2022-10-18T11:16:55.640Z,23.63
2022-10-18T11:19:48.378Z,16.00
2022-10-18T11:22:21.911Z,14.63
2022-10-18T11:24:48.706Z,18.10
2022-10-18T11:27:27.030Z,17.93
2022-10-18T11:30:25.542Z,20.13
2022-10-18T11:33:08.858Z,17.73
2022-10-18T11:36:04.535Z,14.20
2022-10-18T11:38:45.330Z,25.87
2022-10-18T11:41:30.598Z,19.30
2022-10-18T11:44:03.666Z,20.57
2022-10-18T11:46:45.945Z,14.53
2022-10-18T11:49:54.267Z,13.20
2022-10-18T11:52:20.829Z,17.40
2022-10-18T11:55:05.287Z,16.37
2022-10-18T11:58:08.918Z,15.83
2022-10-18T12:00:40.466Z,21.43
2022-10-18T12:03:16.226Z,15.43
2022-10-18T12:05:45.623Z,18.03
2022-10-18T12:08:16.175Z,16.10
2022-10-18T12:11:04.529Z,19.03
2022-10-18T12:13:48.375Z,10.73
2022-10-18T12:16:16.488Z,11.53
2022-10-18T12:19:01.870Z,17.50
2022-10-18T12:21:32.299Z,13.90
2022-10-18T12:24:07.202Z,14.60
2022-10-18T12:26:35.879Z,8.43
2022-10-18T12:29:25.851Z,9.70
2022-10-18T12:32:01.582Z,9.90
2022-10-18T12:34:37.593Z,7.83
2022-10-18T12:37:28.666Z,18.40
2022-10-18T12:40:37.198Z,6.77
2022-10-18T12:43:10.840Z,13.93
2022-10-18T12:45:50.773Z,12.50
2022-10-18T12:48:36.018Z,14.43
2022-10-18T12:51:22.225Z,16.13
2022-10-18T12:54:12.367Z,5.40
2022-10-18T12:56:42.145Z,14.47
2022-10-18T12:59:14.812Z,17.27
2022-10-18T13:01:50.542Z,4.60
2022-10-18T13:04:29.634Z,9.50
2022-10-18T13:07:04.783Z,10.80
2022-10-18T13:09:37.345Z,9.97
2022-10-18T13:12:09.747Z,11.07
2022-10-18T13:14:48.211Z,6.40
2022-10-18T13:17:42.379Z,14.60
2022-10-18T13:20:25.987Z,7.87
2022-10-18T13:25:48.372Z,10.47
2022-10-18T13:28:35.068Z,5.30
2022-10-18T13:31:26.323Z,9.73
2022-10-18T13:33:53.019Z,12.97
2022-10-18T13:36:29.431Z,8.10
2022-10-18T13:38:57.533Z,7.17
2022-10-18T13:41:40.568Z,11.67
2022-10-18T13:44:28.689Z,16.47
2022-10-18T13:46:55.317Z,17.43
2022-10-18T13:49:27.679Z,7.70
2022-10-18T13:52:32.344Z,10.80
2022-10-18T13:55:36.892Z,16.33
2022-10-18T13:58:12.675Z,10.13
2022-10-18T14:00:50.608Z,6.30
2022-10-18T14:03:58.258Z,13.73
2022-10-18T14:06:42.454Z,12.97
2022-10-18T14:12:30.992Z,8.00
2022-10-18T14:15:25.371Z,10.07
2022-10-18T14:17:55.610Z,9.73
2022-10-18T14:20:30.159Z,17.30
2022-10-18T14:23:20.451Z,7.20
2022-10-18T14:25:47.267Z,15.50
2022-10-18T14:28:13.860Z,13.77
2022-10-18T14:30:58.827Z,5.97
2022-10-18T14:33:28.438Z,13.10
2022-10-18T14:36:01.268Z,12.40
2022-10-18T14:38:28.136Z,7.20
2022-10-18T14:41:20.803Z,6.90
2022-10-18T14:43:48.340Z,14.20
2022-10-18T14:46:19.588Z,19.60
2022-10-18T14:49:00.538Z,12.27
2022-10-18T14:51:29.946Z,10.73
2022-10-18T14:53:57.008Z,9.70
2022-10-18T14:56:29.721Z,12.00
2022-10-18T14:58:59.461Z,15.97
2022-10-18T15:01:29.827Z,9.40
2022-10-18T15:03:58.752Z,9.07
2022-10-18T15:06:26.270Z,13.63
2022-10-18T15:08:58.739Z,9.30
2022-10-18T15:11:26.086Z,10.17
2022-10-18T15:13:59.253Z,6.70
2022-10-18T15:16:28.584Z,9.43
2022-10-18T15:19:07.634Z,7.77
2022-10-18T15:21:36.148Z,11.87
2022-10-18T15:24:30.218Z,9.63
2022-10-18T15:27:01.150Z,8.23
2022-10-18T15:29:32.725Z,6.13
2022-10-18T15:32:08.133Z,12.30
2022-10-18T15:34:35.429Z,11.10
2022-10-18T15:37:16.612Z,6.27
2022-10-18T15:39:43.247Z,18.27
2022-10-18T15:42:39.130Z,5.60
2022-10-18T15:45:25.696Z,8.67
2022-10-18T15:48:10.332Z,13.23
2022-10-18T15:50:42.686Z,4.23
2022-10-18T15:53:22.537Z,14.57
2022-10-18T15:55:53.590Z,15.57
2022-10-18T15:58:39.357Z,12.73
2022-10-18T16:01:14.652Z,9.70
2022-10-18T16:03:41.552Z,6.80
2022-10-18T16:06:13.336Z,8.80
2022-10-18T16:08:53.305Z,4.47
2022-10-18T16:11:22.563Z,21.20
2022-10-18T16:13:50.146Z,7.63
2022-10-18T16:16:18.411Z,5.70
2022-10-18T16:18:45.219Z,21.00
2022-10-18T16:21:20.823Z,4.43
2022-10-18T16:23:48.991Z,16.67
2022-10-18T16:26:17.551Z,6.00
2022-10-18T16:28:44.589Z,17.23
2022-10-18T16:31:23.268Z,12.00
2022-10-18T16:33:51.013Z,9.40
2022-10-18T16:36:22.954Z,7.70
2022-10-18T16:38:50.349Z,40.27
2022-10-18T16:41:17.178Z,14.47
2022-10-18T16:43:45.836Z,10.63
2022-10-18T16:46:18.310Z,8.63
2022-10-18T16:48:45.850Z,10.70
2022-10-18T16:51:12.570Z,13.73
2022-10-18T16:53:39.714Z,12.37
2022-10-18T16:56:17.907Z,16.73
2022-10-18T16:58:46.003Z,14.87
2022-10-18T17:01:14.501Z,14.70
2022-10-18T17:03:41.368Z,10.43
2022-10-18T17:06:38.525Z,9.50
2022-10-18T17:09:05.157Z,10.73
2022-10-18T17:11:31.812Z,11.17
2022-10-18T17:13:58.443Z,11.00
2022-10-18T17:19:04.255Z,11.63
2022-10-18T17:21:33.372Z,7.00
2022-10-18T17:24:04.426Z,5.27
2022-10-18T17:26:31.606Z,15.67
2022-10-18T17:29:01.258Z,26.83
2022-10-18T17:31:29.603Z,9.77
2022-10-18T17:33:58.331Z,5.30
2022-10-18T17:36:25.038Z,10.83
2022-10-18T17:38:53.004Z,8.47
2022-10-18T17:41:20.534Z,14.40
2022-10-18T17:43:48.290Z,11.23
2022-10-18T17:46:15.867Z,11.13
2022-10-18T17:48:43.076Z,6.30
2022-10-18T17:51:11.441Z,7.13
2022-10-18T17:53:38.622Z,5.40
2022-10-18T17:56:06.168Z,6.77
2022-10-18T17:58:33.263Z,15.63
2022-10-18T18:01:09.988Z,17.63
2022-10-18T18:03:36.894Z,16.10
2022-10-18T18:06:21.723Z,8.33
2022-10-18T18:08:49.528Z,20.20
2022-10-18T18:11:17.213Z,13.60
2022-10-18T18:13:44.006Z,19.90
2022-10-18T18:16:21.764Z,13.23
2022-10-18T18:18:51.786Z,8.00
2022-10-18T18:21:19.188Z,9.50
2022-10-18T18:23:46.552Z,5.60
2022-10-18T18:26:13.352Z,12.90
2022-10-18T18:28:40.399Z,12.53
2022-10-18T18:31:08.882Z,28.57
2022-10-18T18:33:36.526Z,11.77
2022-10-18T18:36:06.986Z,7.30
2022-10-18T18:38:36.147Z,18.00
2022-10-18T18:41:08.884Z,11.23
2022-10-18T18:43:36.276Z,7.23
2022-10-18T18:46:03.617Z,10.17
2022-10-18T18:48:32.373Z,9.83
2022-10-18T18:50:59.451Z,11.23
2022-10-18T18:53:29.762Z,13.33
2022-10-18T18:56:05.324Z,16.67
2022-10-18T18:58:33.882Z,11.50
2022-10-18T19:01:09.756Z,13.10
2022-10-18T19:03:38.596Z,9.27
2022-10-18T19:06:06.862Z,7.77
2022-10-18T19:08:36.051Z,8.93
2022-10-18T19:11:06.782Z,8.60
2022-10-18T19:13:35.706Z,4.97
2022-10-18T19:16:22.545Z,15.73
2022-10-18T19:19:02.462Z,7.57
2022-10-18T19:21:34.373Z,7.30
2022-10-18T19:24:01.392Z,15.23
2022-10-18T19:26:37.046Z,5.07
2022-10-18T19:29:10.793Z,11.60
2022-10-18T19:31:38.433Z,5.10
2022-10-18T19:34:07.724Z,6.10
2022-10-18T19:36:34.910Z,4.30
2022-10-18T19:39:01.929Z,5.07
2022-10-18T19:41:28.937Z,4.80
2022-10-18T19:43:56.652Z,9.90
2022-10-18T19:46:23.730Z,6.47
2022-10-18T19:48:50.508Z,12.23
2022-10-18T19:51:20.941Z,4.00
2022-10-18T19:53:50.734Z,5.63
2022-10-18T19:56:20.244Z,13.23
2022-10-18T19:58:47.411Z,8.90
2022-10-18T20:01:14.528Z,4.40
2022-10-18T20:03:41.483Z,14.57
2022-10-18T20:06:08.202Z,6.10
2022-10-18T20:08:36.720Z,7.50
2022-10-18T20:11:09.298Z,3.50
2022-10-18T20:13:36.680Z,8.60
2022-10-18T20:16:04.919Z,9.17
2022-10-18T20:18:31.577Z,9.43
2022-10-18T20:20:58.279Z,5.70
2022-10-18T20:23:24.928Z,9.93
2022-10-18T20:26:08.620Z,8.70
2022-10-18T20:28:37.190Z,10.30
2022-10-18T20:31:03.871Z,8.50
2022-10-18T20:33:31.012Z,14.50
2022-10-18T20:36:06.021Z,6.40
2022-10-18T20:38:34.520Z,7.17
2022-10-18T20:41:10.737Z,3.57
2022-10-18T20:43:38.088Z,13.07
2022-10-18T20:46:05.967Z,4.57
2022-10-18T20:48:33.846Z,5.53
2022-10-18T20:51:05.398Z,2.40
2022-10-18T20:53:32.043Z,4.43
2022-10-18T20:56:46.804Z,10.37
2022-10-18T20:59:14.052Z,11.63
2022-10-18T21:01:41.186Z,11.50
2022-10-18T21:04:10.061Z,5.40
2022-10-18T21:06:44.069Z,15.00
2022-10-18T21:09:19.252Z,6.73
2022-10-18T21:11:51.107Z,7.90
2022-10-18T21:14:20.949Z,10.13
2022-10-18T21:16:48.804Z,6.73
2022-10-18T21:19:22.988Z,8.00
2022-10-18T21:21:51.892Z,4.37
2022-10-18T21:24:20.072Z,12.23
2022-10-18T21:26:47.718Z,9.73
2022-10-18T21:29:18.117Z,9.43
2022-10-18T21:31:47.602Z,5.73
2022-10-18T21:34:17.218Z,6.97
2022-10-18T21:36:46.895Z,12.03
2022-10-18T21:39:16.598Z,6.43
2022-10-18T21:41:43.910Z,12.40
2022-10-18T21:44:11.689Z,15.73
2022-10-18T21:46:39.406Z,13.57
2022-10-18T21:49:07.029Z,5.37
2022-10-18T21:51:33.638Z,4.70
2022-10-18T21:54:00.250Z,10.20
2022-10-18T21:56:29.300Z,10.90
2022-10-18T21:58:56.860Z,9.03
2022-10-18T22:01:29.915Z,10.03
2022-10-18T22:03:57.089Z,7.03
2022-10-18T22:06:25.188Z,12.67
2022-10-18T22:08:57.175Z,7.77
2022-10-18T22:11:27.237Z,10.33
2022-10-18T22:13:54.505Z,6.80
2022-10-18T22:16:21.990Z,4.00
2022-10-18T22:18:49.400Z,7.13
2022-10-18T22:21:18.089Z,11.33
2022-10-18T22:23:46.844Z,8.47
2022-10-18T22:26:19.294Z,3.60
2022-10-18T22:28:46.996Z,6.10
2022-10-18T22:31:18.824Z,10.27
2022-10-18T22:33:45.856Z,9.97
2022-10-18T22:36:13.433Z,5.07
2022-10-18T22:38:40.261Z,8.83
2022-10-18T22:41:09.759Z,10.07
2022-10-18T22:43:36.447Z,7.60
2022-10-18T22:46:05.366Z,8.87
2022-10-18T22:48:32.173Z,9.47
2022-10-18T22:50:59.015Z,5.90
2022-10-18T22:53:26.126Z,6.47
2022-10-18T22:55:52.821Z,13.03
2022-10-18T22:58:19.858Z,7.60
2022-10-18T23:00:46.870Z,4.67
2022-10-18T23:03:16.343Z,6.90
2022-10-18T23:05:45.574Z,5.60
2022-10-18T23:08:13.964Z,8.13
2022-10-18T23:10:42.182Z,7.97
2022-10-18T23:13:10.550Z,12.73
2022-10-18T23:15:39.108Z,10.67
2022-10-18T23:18:06.243Z,4.40
2022-10-18T23:20:33.012Z,4.43
2022-10-18T23:22:59.629Z,4.23
2022-10-18T23:25:27.159Z,7.60
2022-10-18T23:27:54.184Z,8.63
2022-10-18T23:30:20.879Z,6.43
2022-10-18T23:32:47.475Z,9.07
2022-10-18T23:35:14.086Z,8.20
2022-10-18T23:37:40.742Z,8.20
2022-10-18T23:40:08.146Z,4.77
2022-10-18T23:42:34.742Z,5.17
2022-10-18T23:45:01.351Z,2.20
2022-10-18T23:47:27.974Z,6.70
2022-10-18T23:49:56.322Z,4.67
2022-10-18T23:52:23.159Z,20.53
2022-10-18T23:54:49.745Z,12.23
2022-10-18T23:57:16.520Z,6.60
2022-10-18T23:59:43.145Z,5.90
